Close sub menu
NASDAQ
NY-Nasdaq Composite 25806,196 -32,75 -0,13% (23:16)
Stijgers 1 dag
Dalers 1 dag
Indices 1 dag
Datadog +31,3%
Fortinet +20,0%
Zscaler +10,1%
CrowdStrike Holdings +8,0%
Palo Alto Networks Inc +7,0%
Workday +6,7%
QUALCOMM +5,2%
Intuit +4,7%
Atlassian Corp +4,0%
Automatic Data Processing +3,3%
Tesla +3,3%
Autodesk +3,3%
Marvell Technology -7,1%
Baker Hughes Company -4,7%
NXP Semiconductors NV -4,4%
Applied Materials -4,2%
Lam Research Corp -3,6%
Constellation Energy Corp -3,6%
Align Technology -3,2%
Advanced Micro Devices -3,1%
Broadcom Inc. -3,0%
Intel Corp -3,0%
Micron Technology Inc -3,0%
KLA Corp -2,9%
AEX* 1.019,42-1,2%
Midkap* 1.054,54-0,9%
AMS Next 20®* 1.664,91-0,3%
FTSE100 10.276,95-1,5%
Dow Jones 49.596,97-0,6%
NASDAQ 25.806,196-0,1%
S&P500 7.337,11-0,4%
S&P Future 7.376,750,0%
BEL20** 5.469,75-1,5%
CAC 40** 8.202,08-1,2%
DAX 24.663,61-1,0%
* real time    ** slotkoers
NaamKoersVorige+/- %1 wk1 mndDit jaar 1 jaarTijd
Adobe 256,51 250,17 +2,5% +2,7% +2,4% -28,5% -34,7% 22:00
Advanced Micro Devices 408,25 421,39 -3,1% +25,0% +91,4% +96,8% +327,4% 22:00
Airbnb 140,46 139,88 +0,4% -0,3% +10,3% +3,0% +14,9% 22:00
Align Technology 168,32 173,94 -3,2% -2,5% +1,2% +11,4% +0,5% 22:00
Alphabet 395,30 395,14 0,0% +13,8% +32,7% +25,9% +139,1% 22:00
Alphabet 397,94 398,04 0,0% +13,7% +32,6% +27,1% +143,7% 22:00
Amazon.com 271,17 274,99 -1,4% +4,5% +29,2% +19,1% +48,6% 22:00
American Electric Power Company 131,75 132,56 -0,6% -1,4% +0,1% +14,9% +23,4% 22:00
Amgen 329,06 331,11 -0,6% -2,0% -3,3% +1,2% +22,4% 22:00
Analog Devices 408,65 415,63 -1,7% +6,8% +27,0% +53,3% +112,5% 22:00
Ansys 374,30 374,30 -- -- -4,7% +11,0% +15,2% 22:00
Apple 287,42 287,51 0,0% +6,4% +11,0% +5,7% +44,8% 22:00
Applied Materials 410,52 428,62 -4,2% +12,0% +21,5% +66,7% +180,0% 22:00
ASML Holding NV 1.516,60 1.544,74 -1,8% +10,8% +18,5% +44,4% +127,2% 22:00
AstraZeneca PLC 194,94 194,94 0,0% -- +0,3% +112,1% +200,4% 00:00
Atlassian Corp 92,37 88,80 +4,0% +26,0% +30,4% -45,2% -57,3% 22:00
Autodesk 251,10 243,08 +3,3% +3,1% +2,3% -17,9% -12,8% 22:00
Automatic Data Processing 214,09 207,20 +3,3% -3,7% +1,4% -19,5% -31,7% 22:00
Baker Hughes Company 63,53 66,67 -4,7% -3,1% +9,8% +46,4% +83,1% 22:00
Biogen 191,50 190,68 +0,4% -1,9% +10,6% +8,3% +63,2% 22:00
Booking Holdings Inc. 171,28 168,32 +1,8% -3,3% -4,5% -21,4% -18,5% 22:00
Broadcom Inc. 412,56 425,44 -3,0% +4,9% +35,3% +22,9% +112,6% 22:00
Cadence Design Systems 356,90 354,90 +0,6% +7,6% +27,0% +13,5% +16,1% 22:00
Charter Communications 160,24 156,52 +2,4% -1,4% -28,9% -25,1% -61,1% 22:00
Cintas Corp 170,04 169,36 +0,4% -2,7% -1,4% -10,0% -20,6% 22:00
Cisco Systems 92,17 91,64 +0,6% +2,3% +13,9% +19,0% +54,7% 22:00
Cognizant Technology Solutions Corp 51,93 51,33 +1,2% -6,2% -17,7% -38,2% -33,9% 22:00
Comcast Corp 26,23 26,44 -0,8% -1,3% -4,5% -11,6% -23,4% 22:00
Constellation Energy Corp 311,30 322,78 -3,6% +8,7% +17,3% -8,6% +17,9% 22:00
Copart 33,87 33,39 +1,5% +0,1% +1,6% -14,8% -45,1% 22:00
CoStar Group 34,98 34,07 +2,7% -0,2% -17,3% -49,3% -54,3% 22:00
Costco Wholesale Corp 1.012,06 995,75 +1,6% -0,3% -2,2% +15,5% -1,5% 22:00
CrowdStrike Holdings 505,74 468,07 +8,0% +3,4% +17,4% -0,2% +5,6% 22:00
CSX Corp 44,46 45,60 -2,5% +2,0% +9,9% +25,7% +62,3% 22:00
Datadog 188,79 143,71 +31,3% +7,2% +23,2% +5,6% +35,4% 22:00
DexCom 60,92 60,36 +0,9% +4,8% -4,5% -9,1% -26,0% 22:00
Diamondback Energy 190,44 195,08 -2,4% -5,0% +0,4% +29,8% +47,8% 22:00
Dollar Tree 96,76 96,51 +0,3% +0,8% -13,1% -21,6% +15,2% 22:00
eBay 106,38 108,15 -1,6% +4,2% +10,6% +24,1% +53,6% 22:00
Electronic Arts 200,86 200,79 0,0% -0,9% -1,7% -1,7% +29,9% 22:00
Enphase Energy 35,46 35,80 -0,9% +14,7% +6,4% +11,7% -18,4% 22:00
Exelon Corp 44,41 45,02 -1,4% -4,3% -8,1% +3,2% -2,8% 22:00
Fastenal Co 44,36 44,71 -0,8% +2,3% -2,6% +11,4% +13,9% 22:00
Fortinet 107,97 89,95 +20,0% +4,5% +9,4% +13,3% -16,0% 22:00
Gilead Sciences 134,24 136,30 -1,6% +5,8% -2,7% +11,0% +39,3% 22:00
GlobalFoundries 70,88 72,30 -1,9% +15,2% +65,8% +107,0% +107,1% 22:00
Honeywell International 216,10 216,86 -0,4% +3,1% -5,0% +11,1% +3,3% 22:00
IDEXX Laboratories 572,60 579,23 -1,2% +4,6% +0,3% -14,4% +22,3% 22:00
Illumina 138,68 142,58 -2,7% +18,4% +11,6% +8,7% +91,3% 22:00
Intel Corp 109,61 113,01 -3,0% +19,3% +122,5% +206,3% +466,7% 22:00
Intuit 406,78 388,55 +4,7% -1,7% -6,9% -41,3% -38,0% 22:00
Intuitive Surgical 453,34 451,73 +0,4% -0,5% -0,2% -20,2% -14,8% 22:00
JD.com 30,21 30,69 -1,6% +3,4% +7,7% +7,0% -9,9% 22:00
Keurig Dr Pepper 28,53 28,56 -0,1% -1,3% +11,1% +2,0% -16,3% 22:00
KLA Corp 1.763,25 1.816,29 -2,9% 0,0% +17,9% +49,5% +167,3% 22:00
Kraft Heinz Company (The) 23,66 23,07 +2,5% +2,9% -2,1% -4,9% -18,8% 22:00
Lam Research Corp 286,41 297,17 -3,6% +19,5% +34,7% +73,6% +306,2% 22:00
Lucid Group Inc 6,05 6,19 -2,3% +7,8% -33,4% -41,2% -73,3% 22:00
lululemon athletica 133,61 132,04 +1,2% -4,4% -15,5% -36,5% -51,2% 22:00
Marriott International 351,85 359,06 -2,0% +1,4% +6,2% +15,7% +42,5% 22:00
Marvell Technology 160,02 172,15 -7,1% +10,0% +57,2% +102,6% +181,2% 22:00
MercadoLibre 1.870,01 1.841,14 +1,6% +4,2% +7,6% -8,6% -17,4% 22:00
Meta Platforms 616,91 612,88 +0,6% -8,4% +7,0% -7,2% +4,4% 22:00
Microchip Technology 101,58 102,92 -1,3% +14,2% +53,2% +61,6% +118,0% 22:00
Micron Technology Inc 646,47 666,59 -3,0% +28,6% +76,5% +133,6% +728,2% 22:00
Microsoft Corp 420,92 413,96 +1,6% -2,5% +11,0% -14,4% -4,5% 22:00
Moderna 48,56 48,79 -0,5% +6,6% 0,0% +65,3% +99,5% 22:00
Mondelez International 61,31 61,87 -0,9% +1,4% +6,0% +14,9% -8,4% 22:00
Monster Beverage Corp 75,98 77,20 -1,6% +0,4% +4,1% +0,7% +28,6% 22:00
Netflix Inc. 88,26 88,27 0,0% -4,2% -10,8% -5,9% -22,5% 22:00
NVIDIA Corp 211,50 207,83 +1,8% -0,8% +16,9% +11,3% +82,9% 22:00
NXP Semiconductors NV 290,35 303,55 -4,4% +5,0% +54,1% +39,9% +66,5% 22:00
Old Dominion Freight Line 198,08 200,62 -1,3% -4,2% -0,8% +27,9% +30,8% 22:00
O'Reilly Automotive Inc 94,56 94,78 -0,2% +3,3% +2,9% +3,9% +2,5% 22:00
PACCAR 114,04 116,51 -2,1% -1,4% -1,6% +6,3% +30,9% 22:00
Palo Alto Networks Inc 196,51 183,68 +7,0% +1,1% +13,4% -0,3% -2,7% 22:00
Paychex 94,26 91,38 +3,2% -2,8% -0,5% -18,5% -38,7% 22:00
PayPal Holdings 46,22 46,27 -0,1% -9,2% +1,7% -20,8% -32,0% 22:00
PDD Holdings 101,53 102,31 -0,8% +4,7% +1,3% -9,8% -8,1% 22:00
Pepsico 156,26 155,96 +0,2% +0,4% -0,5% +8,6% +19,3% 22:00
QUALCOMM 202,57 192,57 +5,2% +23,5% +53,2% +12,6% +37,7% 22:00
Regeneron Pharmaceuticals 708,96 721,05 -1,7% +5,0% -5,5% -6,6% +29,1% 22:00
Rivian Automotive 14,19 14,48 -2,1% -9,8% -5,2% -26,5% +7,3% 22:00
Ross Stores 224,48 228,91 -1,9% +1,7% +3,5% +27,1% +61,6% 22:00
Seagen 228,89 228,74 -- -- +7,2% +78,1% +78,3% 22:00
SiriusXM Holdings Inc 26,74 26,68 +0,3% -0,3% +14,0% +33,4% +24,2% 22:00
Starbucks Corp 104,26 106,44 -2,0% +0,9% +12,3% +26,4% +28,6% 22:00
Synopsys 505,22 504,42 +0,2% +4,8% +27,0% +7,4% +6,5% 22:00
Tesla 411,81 398,73 +3,3% +6,9% +13,0% -11,4% +44,7% 22:00
Texas Instruments 285,16 289,44 -1,5% +7,5% +45,1% +66,8% +79,7% 22:00
T-Mobile US 194,20 193,16 +0,5% -2,5% -2,8% -4,9% -23,9% 22:00
Verisk Analytics 174,71 170,94 +2,2% -9,2% -7,5% -23,6% -42,3% 22:00
Vertex Pharmaceuticals 425,00 427,65 -0,6% +1,0% -1,6% -5,7% -5,0% 22:00
Walgreens Boots Alliance 11,98 11,98 -- -- +0,5% +28,4% +40,6% 22:00
Warner Bros Discovery 27,12 27,20 -0,3% +0,4% -0,9% -5,8% +222,1% 22:00
Workday 130,90 122,63 +6,7% +0,2% -5,5% -42,9% -50,5% 22:00
Xcel Energy 80,43 80,55 -0,1% +2,2% +0,2% +9,1% +13,4% 22:00
Zoom Communications Inc 108,36 105,13 +3,1% +9,8% +27,1% +21,8% +34,7% 22:00
Zscaler 152,83 138,83 +10,1% +3,0% -0,5% -38,3% -40,4% 22:00
Powered by

Schakel browser notificaties in

Schakel browser notificaties in om meldingen te ontvangen op dit apparaat.

Browser notificaties inschakelen

U heeft browser notificaties voor fd.nl eerder geweigerd. Ga naar browser instellingen en sta browser notificaties toe voor fd.nl. De precieze handelingen zijn afhankelijk van uw browser.

U volgt een onderwerp

Wanneer deze zoekterm in een artikel voorkomt, zult u deze terugvinden in Mijn nieuws onder ‘Eurobonds’.

Wilt u via de FD App meldingen ontvangen voor dit onderwerp?

Wilt u via de FD App meldingen ontvangen voor dit onderwerp?

Ons privacy statement is van toepassing.

Meldingen

Wanneer deze zoekterm in een artikel voorkomt, zult u deze terugvinden in Mijn nieuws onder ‘Eurobonds’.

Wilt u via de FD App meldingen ontvangen voor dit onderwerp?

Wilt u via de FD App meldingen ontvangen voor dit onderwerp?